sensor_id;sensor_type;location;lat;lon;timestamp;pressure;altitude;pressure_sealevel;temperature;humidity
61537;BME280;48695;53.480;-6.300;2023-05-28T00:01:26;102091.09;;;20.49;39.52
61537;BME280;48695;53.480;-6.300;2023-05-28T00:03:52;102088.50;;;20.47;39.52
61537;BME280;48695;53.480;-6.300;2023-05-28T00:06:17;102089.47;;;20.44;39.27
61537;BME280;48695;53.480;-6.300;2023-05-28T00:08:42;102092.13;;;20.44;39.77
61537;BME280;48695;53.480;-6.300;2023-05-28T00:11:07;102050.81;;;20.17;40.01
61537;BME280;48695;53.480;-6.300;2023-05-28T00:13:33;102083.34;;;20.42;39.54
61537;BME280;48695;53.480;-6.300;2023-05-28T00:15:58;102075.47;;;20.41;39.66
61537;BME280;48695;53.480;-6.300;2023-05-28T00:18:23;102079.97;;;20.39;39.81
61537;BME280;48695;53.480;-6.300;2023-05-28T00:20:49;102087.09;;;20.38;39.98
61537;BME280;48695;53.480;-6.300;2023-05-28T00:23:14;102084.53;;;20.35;39.79
61537;BME280;48695;53.480;-6.300;2023-05-28T00:25:41;102083.78;;;20.32;39.75
61537;BME280;48695;53.480;-6.300;2023-05-28T00:28:06;102089.19;;;20.30;40.19
61537;BME280;48695;53.480;-6.300;2023-05-28T00:30:31;102034.91;;;19.95;40.00
61537;BME280;48695;53.480;-6.300;2023-05-28T00:32:57;102084.13;;;20.24;40.01
61537;BME280;48695;53.480;-6.300;2023-05-28T00:35:22;102088.63;;;20.22;40.25
61537;BME280;48695;53.480;-6.300;2023-05-28T00:37:47;102076.34;;;20.19;39.94
61537;BME280;48695;53.480;-6.300;2023-05-28T00:40:12;102089.69;;;20.18;40.36
61537;BME280;48695;53.480;-6.300;2023-05-28T00:42:41;102096.81;;;20.16;40.40
61537;BME280;48695;53.480;-6.300;2023-05-28T00:45:06;102093.38;;;20.14;40.11
61537;BME280;48695;53.480;-6.300;2023-05-28T00:47:32;102083.81;;;20.10;39.91
61537;BME280;48695;53.480;-6.300;2023-05-28T00:49:57;102088.34;;;20.08;40.05
61537;BME280;48695;53.480;-6.300;2023-05-28T00:52:25;102083.16;;;20.05;40.28
61537;BME280;48695;53.480;-6.300;2023-05-28T00:54:51;102082.34;;;20.03;39.91
61537;BME280;48695;53.480;-6.300;2023-05-28T00:57:16;102083.41;;;19.99;40.72
61537;BME280;48695;53.480;-6.300;2023-05-28T00:59:46;102080.94;;;19.94;40.41
61537;BME280;48695;53.480;-6.300;2023-05-28T01:02:11;102090.78;;;19.90;40.39
61537;BME280;48695;53.480;-6.300;2023-05-28T01:04:37;102075.91;;;19.86;40.70
61537;BME280;48695;53.480;-6.300;2023-05-28T01:07:02;102084.00;;;19.83;40.31
61537;BME280;48695;53.480;-6.300;2023-05-28T01:09:27;102081.53;;;19.79;40.69
61537;BME280;48695;53.480;-6.300;2023-05-28T01:11:53;102082.50;;;19.76;40.67
61537;BME280;48695;53.480;-6.300;2023-05-28T01:14:19;102088.81;;;19.74;40.65
61537;BME280;48695;53.480;-6.300;2023-05-28T01:16:45;102089.91;;;19.68;41.16
61537;BME280;48695;53.480;-6.300;2023-05-28T01:19:13;102090.84;;;19.67;40.89
61537;BME280;48695;53.480;-6.300;2023-05-28T01:21:41;102084.78;;;19.63;40.78
61537;BME280;48695;53.480;-6.300;2023-05-28T01:24:08;102090.16;;;19.62;40.71
61537;BME280;48695;53.480;-6.300;2023-05-28T01:26:35;102092.88;;;19.59;40.95
61537;BME280;48695;53.480;-6.300;2023-05-28T01:29:00;102085.00;;;19.57;41.27
61537;BME280;48695;53.480;-6.300;2023-05-28T01:31:26;102085.97;;;19.55;41.18
61537;BME280;48695;53.480;-6.300;2023-05-28T01:33:51;102092.19;;;19.54;41.08
61537;BME280;48695;53.480;-6.300;2023-05-28T01:36:24;102086.94;;;19.52;41.12
61537;BME280;48695;53.480;-6.300;2023-05-28T01:38:52;102091.44;;;19.50;41.38
61537;BME280;48695;53.480;-6.300;2023-05-28T01:41:18;102034.44;;;19.16;41.42
61537;BME280;48695;53.480;-6.300;2023-05-28T01:43:44;102088.94;;;19.45;41.38
61537;BME280;48695;53.480;-6.300;2023-05-28T01:46:10;102086.38;;;19.44;41.22
61537;BME280;48695;53.480;-6.300;2023-05-28T01:48:35;102088.22;;;19.42;41.27
61537;BME280;48695;53.480;-6.300;2023-05-28T01:51:01;102093.63;;;19.39;41.19
61537;BME280;48695;53.480;-6.300;2023-05-28T01:53:26;102091.03;;;19.37;41.57
61537;BME280;48695;53.480;-6.300;2023-05-28T01:55:52;102093.78;;;19.34;41.41
61537;BME280;48695;53.480;-6.300;2023-05-28T01:58:21;102089.47;;;19.32;41.29
61537;BME280;48695;53.480;-6.300;2023-05-28T02:00:48;102086.94;;;19.29;41.36
61537;BME280;48695;53.480;-6.300;2023-05-28T02:03:17;102082.63;;;19.26;41.38
61537;BME280;48695;53.480;-6.300;2023-05-28T02:05:42;102088.97;;;19.22;41.53
61537;BME280;48695;53.480;-6.300;2023-05-28T02:08:07;102088.13;;;19.20;41.55
61537;BME280;48695;53.480;-6.300;2023-05-28T02:10:33;102088.25;;;19.17;41.40
61537;BME280;48695;53.480;-6.300;2023-05-28T02:12:58;102090.09;;;19.15;41.48
61537;BME280;48695;53.480;-6.300;2023-05-28T02:15:25;102086.63;;;19.13;41.40
61537;BME280;48695;53.480;-6.300;2023-05-28T02:17:50;102090.31;;;19.09;41.46
61537;BME280;48695;53.480;-6.300;2023-05-28T02:20:16;102091.31;;;19.06;41.69
61537;BME280;48695;53.480;-6.300;2023-05-28T02:22:42;102098.41;;;19.04;41.46
61537;BME280;48695;53.480;-6.300;2023-05-28T02:25:08;102096.78;;;19.00;41.76
61537;BME280;48695;53.480;-6.300;2023-05-28T02:27:33;102094.22;;;18.99;41.75
61537;BME280;48695;53.480;-6.300;2023-05-28T02:30:00;102096.16;;;18.93;41.42
61537;BME280;48695;53.480;-6.300;2023-05-28T02:32:26;102100.66;;;18.91;41.25
61537;BME280;48695;53.480;-6.300;2023-05-28T02:34:51;102103.38;;;18.88;41.80
61537;BME280;48695;53.480;-6.300;2023-05-28T02:37:19;102092.91;;;18.85;41.73
61537;BME280;48695;53.480;-6.300;2023-05-28T02:39:46;102098.31;;;18.82;41.75
61537;BME280;48695;53.480;-6.300;2023-05-28T02:42:11;102096.63;;;18.80;42.03
61537;BME280;48695;53.480;-6.300;2023-05-28T02:44:36;102100.25;;;18.77;41.75
61537;BME280;48695;53.480;-6.300;2023-05-28T02:47:02;102110.09;;;18.74;41.93
61537;BME280;48695;53.480;-6.300;2023-05-28T02:49:27;102098.72;;;18.70;42.32
61537;BME280;48695;53.480;-6.300;2023-05-28T02:51:52;102098.81;;;18.67;41.90
61537;BME280;48695;53.480;-6.300;2023-05-28T02:54:17;102091.91;;;18.63;42.28
61537;BME280;48695;53.480;-6.300;2023-05-28T02:56:43;102097.28;;;18.60;42.21
61537;BME280;48695;53.480;-6.300;2023-05-28T02:59:08;102102.69;;;18.57;42.21
61537;BME280;48695;53.480;-6.300;2023-05-28T03:01:33;102102.78;;;18.54;42.22
61537;BME280;48695;53.480;-6.300;2023-05-28T03:03:58;102097.63;;;18.51;42.57
61537;BME280;48695;53.480;-6.300;2023-05-28T03:06:24;102108.28;;;18.48;42.66
61537;BME280;48695;53.480;-6.300;2023-05-28T03:08:49;102103.91;;;18.47;42.65
61537;BME280;48695;53.480;-6.300;2023-05-28T03:11:14;102111.03;;;18.45;42.19
61537;BME280;48695;53.480;-6.300;2023-05-28T03:13:40;102114.66;;;18.42;42.35
61537;BME280;48695;53.480;-6.300;2023-05-28T03:16:05;102117.34;;;18.40;42.16
61537;BME280;48695;53.480;-6.300;2023-05-28T03:18:31;102113.88;;;18.38;42.13
61537;BME280;48695;53.480;-6.300;2023-05-28T03:20:56;102115.72;;;18.36;42.32
61537;BME280;48695;53.480;-6.300;2023-05-28T03:23:21;102111.44;;;18.32;42.05
61537;BME280;48695;53.480;-6.300;2023-05-28T03:25:46;102114.16;;;18.29;42.07
61537;BME280;48695;53.480;-6.300;2023-05-28T03:28:12;102110.72;;;18.27;42.03
61537;BME280;48695;53.480;-6.300;2023-05-28T03:30:37;102111.63;;;18.26;42.21
61537;BME280;48695;53.480;-6.300;2023-05-28T03:33:02;102111.72;;;18.23;41.97
61537;BME280;48695;53.480;-6.300;2023-05-28T03:35:27;102103.91;;;18.20;42.00
61537;BME280;48695;53.480;-6.300;2023-05-28T03:37:53;102111.00;;;18.18;41.82
61537;BME280;48695;53.480;-6.300;2023-05-28T03:40:18;102112.00;;;18.15;41.58
61537;BME280;48695;53.480;-6.300;2023-05-28T03:42:43;102113.78;;;18.13;41.57
61537;BME280;48695;53.480;-6.300;2023-05-28T03:45:09;102113.06;;;18.10;41.57
61537;BME280;48695;53.480;-6.300;2023-05-28T03:47:34;102121.06;;;18.07;41.83
61537;BME280;48695;53.480;-6.300;2023-05-28T03:50:00;102122.91;;;18.05;41.48
61537;BME280;48695;53.480;-6.300;2023-05-28T03:52:26;102124.75;;;18.01;41.55
61537;BME280;48695;53.480;-6.300;2023-05-28T03:54:52;102132.78;;;17.98;41.79
61537;BME280;48695;53.480;-6.300;2023-05-28T03:57:17;102136.41;;;17.96;41.38
61537;BME280;48695;53.480;-6.300;2023-05-28T03:59:42;102143.50;;;17.94;40.95
61537;BME280;48695;53.480;-6.300;2023-05-28T04:02:08;102139.19;;;17.91;41.22
61537;BME280;48695;53.480;-6.300;2023-05-28T04:04:33;102143.69;;;17.87;41.66
61537;BME280;48695;53.480;-6.300;2023-05-28T04:06:58;102139.38;;;17.85;41.75
61537;BME280;48695;53.480;-6.300;2023-05-28T04:09:24;102144.72;;;17.82;41.48
61537;BME280;48695;53.480;-6.300;2023-05-28T04:11:49;102142.16;;;17.80;41.49
61537;BME280;48695;53.480;-6.300;2023-05-28T04:14:14;102133.38;;;17.78;41.55
61537;BME280;48695;53.480;-6.300;2023-05-28T04:16:40;102135.22;;;17.76;41.66
61537;BME280;48695;53.480;-6.300;2023-05-28T04:19:05;102134.41;;;17.74;41.80
61537;BME280;48695;53.480;-6.300;2023-05-28T04:21:31;102135.28;;;17.73;41.66
61537;BME280;48695;53.480;-6.300;2023-05-28T04:23:56;102138.88;;;17.71;41.56
61537;BME280;48695;53.480;-6.300;2023-05-28T04:26:22;102128.38;;;17.69;41.68
61537;BME280;48695;53.480;-6.300;2023-05-28T04:28:47;102128.44;;;17.66;41.28
61537;BME280;48695;53.480;-6.300;2023-05-28T04:31:13;102137.28;;;17.65;41.43
61537;BME280;48695;53.480;-6.300;2023-05-28T04:33:38;102132.06;;;17.62;41.68
61537;BME280;48695;53.480;-6.300;2023-05-28T04:36:04;102140.91;;;17.61;41.47
61537;BME280;48695;53.480;-6.300;2023-05-28T04:38:29;102139.19;;;17.60;41.82
61537;BME280;48695;53.480;-6.300;2023-05-28T04:40:57;102142.75;;;17.59;41.78
61537;BME280;48695;53.480;-6.300;2023-05-28T04:43:22;102155.97;;;17.59;41.63
61537;BME280;48695;53.480;-6.300;2023-05-28T04:45:48;102153.38;;;17.56;41.57
61537;BME280;48695;53.480;-6.300;2023-05-28T04:48:13;102156.03;;;17.56;41.69
61537;BME280;48695;53.480;-6.300;2023-05-28T04:50:38;102155.25;;;17.52;41.51
61537;BME280;48695;53.480;-6.300;2023-05-28T04:53:05;102164.03;;;17.53;41.25
61537;BME280;48695;53.480;-6.300;2023-05-28T04:55:30;102161.50;;;17.50;41.54
61537;BME280;48695;53.480;-6.300;2023-05-28T04:57:55;102160.66;;;17.48;41.33
61537;BME280;48695;53.480;-6.300;2023-05-28T05:00:21;102167.75;;;17.46;41.34
61537;BME280;48695;53.480;-6.300;2023-05-28T05:02:46;102171.34;;;17.43;41.22
61537;BME280;48695;53.480;-6.300;2023-05-28T05:05:13;102168.75;;;17.42;41.29
61537;BME280;48695;53.480;-6.300;2023-05-28T05:07:39;102173.22;;;17.40;41.64
61537;BME280;48695;53.480;-6.300;2023-05-28T05:10:08;102181.22;;;17.36;41.47
61537;BME280;48695;53.480;-6.300;2023-05-28T05:12:33;102181.28;;;17.35;41.33
61537;BME280;48695;53.480;-6.300;2023-05-28T05:14:58;102178.66;;;17.33;41.22
61537;BME280;48695;53.480;-6.300;2023-05-28T05:17:24;102192.75;;;17.32;41.46
61537;BME280;48695;53.480;-6.300;2023-05-28T05:19:49;102191.03;;;17.31;41.56
61537;BME280;48695;53.480;-6.300;2023-05-28T05:22:14;102193.72;;;17.30;41.39
61537;BME280;48695;53.480;-6.300;2023-05-28T05:24:40;102199.94;;;17.29;41.63
61537;BME280;48695;53.480;-6.300;2023-05-28T05:27:05;102199.94;;;17.29;41.70
61537;BME280;48695;53.480;-6.300;2023-05-28T05:29:31;102195.53;;;17.28;41.26
61537;BME280;48695;53.480;-6.300;2023-05-28T05:31:56;102197.31;;;17.27;41.61
61537;BME280;48695;53.480;-6.300;2023-05-28T05:34:22;102194.66;;;17.27;41.50
61537;BME280;48695;53.480;-6.300;2023-05-28T05:36:48;102196.38;;;17.28;41.70
61537;BME280;48695;53.480;-6.300;2023-05-28T05:39:13;102196.38;;;17.28;41.29
61537;BME280;48695;53.480;-6.300;2023-05-28T05:41:39;102187.59;;;17.29;41.60
61537;BME280;48695;53.480;-6.300;2023-05-28T05:44:05;102185.81;;;17.30;41.37
61537;BME280;48695;53.480;-6.300;2023-05-28T05:46:30;102197.25;;;17.30;41.73
61537;BME280;48695;53.480;-6.300;2023-05-28T05:48:55;102192.75;;;17.32;41.27
61537;BME280;48695;53.480;-6.300;2023-05-28T05:51:20;102204.19;;;17.34;41.26
61537;BME280;48695;53.480;-6.300;2023-05-28T05:53:46;102191.84;;;17.35;41.26
61537;BME280;48695;53.480;-6.300;2023-05-28T05:56:11;102190.88;;;17.37;41.38
61537;BME280;48695;53.480;-6.300;2023-05-28T05:58:36;102192.59;;;17.38;41.32
61537;BME280;48695;53.480;-6.300;2023-05-28T06:01:02;102194.34;;;17.40;41.33
61537;BME280;48695;53.480;-6.300;2023-05-28T06:03:28;102189.88;;;17.42;41.29
61537;BME280;48695;53.480;-6.300;2023-05-28T06:05:53;102191.59;;;17.43;41.55
61537;BME280;48695;53.480;-6.300;2023-05-28T06:08:18;102190.72;;;17.44;41.21
61537;BME280;48695;53.480;-6.300;2023-05-28T06:10:44;102189.75;;;17.46;41.12
61537;BME280;48695;53.480;-6.300;2023-05-28T06:13:09;102194.19;;;17.46;41.29
61537;BME280;48695;53.480;-6.300;2023-05-28T06:15:35;102193.31;;;17.45;41.06
61537;BME280;48695;53.480;-6.300;2023-05-28T06:18:01;102195.09;;;17.45;41.25
61537;BME280;48695;53.480;-6.300;2023-05-28T06:20:28;102198.59;;;17.45;41.25
61537;BME280;48695;53.480;-6.300;2023-05-28T06:22:53;102193.38;;;17.44;41.00
61537;BME280;48695;53.480;-6.300;2023-05-28T06:25:19;102194.25;;;17.43;41.28
61537;BME280;48695;53.480;-6.300;2023-05-28T06:27:46;102196.00;;;17.44;41.00
61537;BME280;48695;53.480;-6.300;2023-05-28T06:30:11;102193.38;;;17.44;40.95
61537;BME280;48695;53.480;-6.300;2023-05-28T06:32:37;102197.75;;;17.43;41.45
61537;BME280;48695;53.480;-6.300;2023-05-28T06:35:02;102196.00;;;17.44;41.13
61537;BME280;48695;53.480;-6.300;2023-05-28T06:37:27;102202.09;;;17.46;41.00
61537;BME280;48695;53.480;-6.300;2023-05-28T06:39:53;102205.59;;;17.46;41.35
61537;BME280;48695;53.480;-6.300;2023-05-28T06:42:18;102218.75;;;17.48;40.84
61537;BME280;48695;53.480;-6.300;2023-05-28T06:44:43;102212.59;;;17.49;40.87
61537;BME280;48695;53.480;-6.300;2023-05-28T06:47:08;102211.69;;;17.50;41.10
61537;BME280;48695;53.480;-6.300;2023-05-28T06:49:34;102208.94;;;17.53;40.86
61537;BME280;48695;53.480;-6.300;2023-05-28T06:51:59;102212.41;;;17.55;40.94
61537;BME280;48695;53.480;-6.300;2023-05-28T06:54:24;102215.88;;;17.57;41.00
61537;BME280;48695;53.480;-6.300;2023-05-28T06:56:50;102212.31;;;17.58;41.05
61537;BME280;48695;53.480;-6.300;2023-05-28T06:59:15;102216.66;;;17.60;40.63
61537;BME280;48695;53.480;-6.300;2023-05-28T07:01:40;102211.31;;;17.62;40.98
61537;BME280;48695;53.480;-6.300;2023-05-28T07:04:06;102213.06;;;17.63;40.82
61537;BME280;48695;53.480;-6.300;2023-05-28T07:06:31;102207.69;;;17.66;40.43
61537;BME280;48695;53.480;-6.300;2023-05-28T07:08:57;102214.72;;;17.67;40.47
61537;BME280;48695;53.480;-6.300;2023-05-28T07:11:22;102223.47;;;17.69;40.22
61537;BME280;48695;53.480;-6.300;2023-05-28T07:13:48;102219.06;;;17.68;40.73
61537;BME280;48695;53.480;-6.300;2023-05-28T07:16:13;102218.22;;;17.68;40.56
61537;BME280;48695;53.480;-6.300;2023-05-28T07:18:38;102215.53;;;17.69;40.65
61537;BME280;48695;53.480;-6.300;2023-05-28T07:21:04;102223.47;;;17.69;40.73
61537;BME280;48695;53.480;-6.300;2023-05-28T07:23:30;102226.94;;;17.71;40.59
61537;BME280;48695;53.480;-6.300;2023-05-28T07:25:56;102179.13;;;17.49;40.60
61537;BME280;48695;53.480;-6.300;2023-05-28T07:28:21;102236.34;;;17.81;40.69
61537;BME280;48695;53.480;-6.300;2023-05-28T07:30:46;102228.31;;;17.86;40.47
61537;BME280;48695;53.480;-6.300;2023-05-28T07:33:12;102226.34;;;17.93;40.84
61537;BME280;48695;53.480;-6.300;2023-05-28T07:35:37;102225.28;;;17.98;40.85
61537;BME280;48695;53.480;-6.300;2023-05-28T07:38:02;102225.09;;;18.04;40.57
61537;BME280;48695;53.480;-6.300;2023-05-28T07:40:27;102224.09;;;18.10;40.37
61537;BME280;48695;53.480;-6.300;2023-05-28T07:42:53;102226.56;;;18.14;40.60
61537;BME280;48695;53.480;-6.300;2023-05-28T07:45:18;102227.34;;;18.18;40.50
61537;BME280;48695;53.480;-6.300;2023-05-28T07:47:43;102226.34;;;18.22;40.62
61537;BME280;48695;53.480;-6.300;2023-05-28T07:50:08;102227.03;;;18.29;40.43
61537;BME280;48695;53.480;-6.300;2023-05-28T07:52:35;102231.25;;;18.34;40.72
61537;BME280;48695;53.480;-6.300;2023-05-28T07:55:01;102236.38;;;18.40;40.60
61537;BME280;48695;53.480;-6.300;2023-05-28T07:57:26;102243.19;;;18.48;40.54
61537;BME280;48695;53.480;-6.300;2023-05-28T07:59:51;102243.84;;;18.54;40.15
61537;BME280;48695;53.480;-6.300;2023-05-28T08:02:17;102239.28;;;18.59;40.30
61537;BME280;48695;53.480;-6.300;2023-05-28T08:04:42;102239.97;;;18.66;40.17
61537;BME280;48695;53.480;-6.300;2023-05-28T08:07:07;102238.09;;;18.71;40.22
61537;BME280;48695;53.480;-6.300;2023-05-28T08:09:35;102243.19;;;18.77;40.19
61537;BME280;48695;53.480;-6.300;2023-05-28T08:12:00;102242.97;;;18.83;40.34
61537;BME280;48695;53.480;-6.300;2023-05-28T08:14:26;102242.75;;;18.89;40.07
61537;BME280;48695;53.480;-6.300;2023-05-28T08:16:52;102240.81;;;18.95;40.31
61537;BME280;48695;53.480;-6.300;2023-05-28T08:19:17;102240.63;;;19.01;39.92
61537;BME280;48695;53.480;-6.300;2023-05-28T08:21:42;102243.97;;;19.06;40.24
61537;BME280;48695;53.480;-6.300;2023-05-28T08:24:07;102203.88;;;18.91;40.30
61537;BME280;48695;53.480;-6.300;2023-05-28T08:26:35;102240.84;;;19.21;39.83
61537;BME280;48695;53.480;-6.300;2023-05-28T08:29:00;102244.13;;;19.28;39.81
61537;BME280;48695;53.480;-6.300;2023-05-28T08:31:25;102246.63;;;19.32;40.01
61537;BME280;48695;53.480;-6.300;2023-05-28T08:33:51;102239.41;;;19.36;39.73
61537;BME280;48695;53.480;-6.300;2023-05-28T08:36:16;102241.91;;;19.40;39.69
61537;BME280;48695;53.480;-6.300;2023-05-28T08:38:42;102246.19;;;19.44;39.60
61537;BME280;48695;53.480;-6.300;2023-05-28T08:41:07;102247.72;;;19.52;39.74
61537;BME280;48695;53.480;-6.300;2023-05-28T08:43:32;102246.56;;;19.59;39.87
61537;BME280;48695;53.480;-6.300;2023-05-28T08:45:57;102242.88;;;19.64;39.84
61537;BME280;48695;53.480;-6.300;2023-05-28T08:48:23;102255.09;;;19.68;39.63
61537;BME280;48695;53.480;-6.300;2023-05-28T08:50:48;102244.25;;;19.75;39.27
61537;BME280;48695;53.480;-6.300;2023-05-28T08:53:16;102252.03;;;19.79;39.06
61537;BME280;48695;53.480;-6.300;2023-05-28T08:55:43;102243.16;;;19.80;39.19
61537;BME280;48695;53.480;-6.300;2023-05-28T08:58:08;102252.91;;;19.80;39.18
61537;BME280;48695;53.480;-6.300;2023-05-28T09:00:34;102250.19;;;19.81;39.01
61537;BME280;48695;53.480;-6.300;2023-05-28T09:03:01;102249.28;;;19.82;39.46
61537;BME280;48695;53.480;-6.300;2023-05-28T09:05:32;102234.97;;;19.86;39.40
61537;BME280;48695;53.480;-6.300;2023-05-28T09:07:58;102241.84;;;19.92;39.12
61537;BME280;48695;53.480;-6.300;2023-05-28T09:10:23;102247.66;;;20.02;39.33
61537;BME280;48695;53.480;-6.300;2023-05-28T09:12:58;102245.59;;;20.10;39.38
61537;BME280;48695;53.480;-6.300;2023-05-28T09:15:24;102246.13;;;20.19;39.09
61537;BME280;48695;53.480;-6.300;2023-05-28T09:17:49;102236.88;;;20.30;39.45
61537;BME280;48695;53.480;-6.300;2023-05-28T09:20:15;102246.22;;;20.40;38.86
61537;BME280;48695;53.480;-6.300;2023-05-28T09:22:40;102245.91;;;20.47;38.96
61537;BME280;48695;53.480;-6.300;2023-05-28T09:25:09;102249.94;;;20.58;38.99
61537;BME280;48695;53.480;-6.300;2023-05-28T09:27:34;102243.28;;;20.69;38.83
61537;BME280;48695;53.480;-6.300;2023-05-28T09:30:06;102253.47;;;20.80;38.88
61537;BME280;48695;53.480;-6.300;2023-05-28T09:32:35;102246.75;;;20.93;38.66
61537;BME280;48695;53.480;-6.300;2023-05-28T09:35:00;102249.72;;;21.06;38.99
61537;BME280;48695;53.480;-6.300;2023-05-28T09:37:27;102249.16;;;21.20;38.89
61537;BME280;48695;53.480;-6.300;2023-05-28T09:39:59;102254.78;;;21.34;38.67
61537;BME280;48695;53.480;-6.300;2023-05-28T09:42:24;102247.91;;;21.49;38.54
61537;BME280;48695;53.480;-6.300;2023-05-28T09:44:50;102216.97;;;21.48;39.19
61537;BME280;48695;53.480;-6.300;2023-05-28T09:47:15;102253.41;;;21.85;38.57
61537;BME280;48695;53.480;-6.300;2023-05-28T09:49:42;102244.72;;;22.00;38.63
61537;BME280;48695;53.480;-6.300;2023-05-28T09:52:07;102251.09;;;22.17;38.33
61537;BME280;48695;53.480;-6.300;2023-05-28T09:54:33;102240.66;;;22.31;38.45
61537;BME280;48695;53.480;-6.300;2023-05-28T09:57:00;102243.69;;;22.42;38.28
61537;BME280;48695;53.480;-6.300;2023-05-28T09:59:28;102237.84;;;22.53;37.94
61537;BME280;48695;53.480;-6.300;2023-05-28T10:02:15;102241.63;;;22.66;38.07
61537;BME280;48695;53.480;-6.300;2023-05-28T10:04:44;102242.19;;;22.92;38.35
61537;BME280;48695;53.480;-6.300;2023-05-28T10:07:11;102240.13;;;23.14;38.57
61537;BME280;48695;53.480;-6.300;2023-05-28T10:09:37;102250.72;;;23.33;37.78
61537;BME280;48695;53.480;-6.300;2023-05-28T10:12:12;102240.97;;;23.49;38.02
61537;BME280;48695;53.480;-6.300;2023-05-28T10:14:38;102230.06;;;23.71;37.68
61537;BME280;48695;53.480;-6.300;2023-05-28T10:17:04;102240.09;;;23.99;38.17
61537;BME280;48695;53.480;-6.300;2023-05-28T10:19:30;102238.66;;;24.25;37.81
61537;BME280;48695;53.480;-6.300;2023-05-28T10:21:56;102247.31;;;24.46;37.57
61537;BME280;48695;53.480;-6.300;2023-05-28T10:24:21;102247.72;;;24.70;37.11
61537;BME280;48695;53.480;-6.300;2023-05-28T10:26:47;102243.53;;;24.96;37.16
61537;BME280;48695;53.480;-6.300;2023-05-28T10:29:12;102238.31;;;25.25;37.31
61537;BME280;48695;53.480;-6.300;2023-05-28T10:31:38;102252.50;;;25.55;37.72
61537;BME280;48695;53.480;-6.300;2023-05-28T10:34:13;102242.59;;;25.86;36.50
61537;BME280;48695;53.480;-6.300;2023-05-28T10:36:48;102234.63;;;26.13;36.77
61537;BME280;48695;53.480;-6.300;2023-05-28T10:39:14;102232.78;;;26.42;36.51
61537;BME280;48695;53.480;-6.300;2023-05-28T10:41:39;102238.00;;;26.71;36.65
61537;BME280;48695;53.480;-6.300;2023-05-28T10:44:05;102240.38;;;27.02;36.26
61537;BME280;48695;53.480;-6.300;2023-05-28T10:46:40;102233.03;;;27.31;36.05
61537;BME280;48695;53.480;-6.300;2023-05-28T10:59:37;102226.03;;;28.42;35.14
61537;BME280;48695;53.480;-6.300;2023-05-28T11:02:03;102213.97;;;28.72;35.62
61537;BME280;48695;53.480;-6.300;2023-05-28T11:04:36;102218.75;;;29.03;34.68
61537;BME280;48695;53.480;-6.300;2023-05-28T11:07:02;102215.16;;;29.38;34.60
61537;BME280;48695;53.480;-6.300;2023-05-28T11:09:27;102221.09;;;29.77;34.91
61537;BME280;48695;53.480;-6.300;2023-05-28T11:11:53;102208.34;;;30.12;34.59
61537;BME280;48695;53.480;-6.300;2023-05-28T11:14:22;102208.84;;;30.49;33.73
61537;BME280;48695;53.480;-6.300;2023-05-28T11:16:47;102211.06;;;30.88;34.08
61537;BME280;48695;53.480;-6.300;2023-05-28T11:19:12;102213.28;;;31.24;33.43
61537;BME280;48695;53.480;-6.300;2023-05-28T11:21:50;102211.34;;;31.57;33.67
61537;BME280;48695;53.480;-6.300;2023-05-28T11:24:16;102215.78;;;31.89;33.99
61537;BME280;48695;53.480;-6.300;2023-05-28T11:26:41;102214.97;;;32.17;32.70
61537;BME280;48695;53.480;-6.300;2023-05-28T11:29:06;102214.47;;;32.43;32.29
61537;BME280;48695;53.480;-6.300;2023-05-28T11:31:41;102216.19;;;32.63;31.75
61537;BME280;48695;53.480;-6.300;2023-05-28T11:34:09;102212.78;;;32.80;31.34
61537;BME280;48695;53.480;-6.300;2023-05-28T11:36:38;102213.34;;;32.94;31.06
61537;BME280;48695;53.480;-6.300;2023-05-28T11:39:04;102216.78;;;33.05;30.75
61537;BME280;48695;53.480;-6.300;2023-05-28T11:41:29;102217.75;;;33.14;30.55
61537;BME280;48695;53.480;-6.300;2023-05-28T11:43:55;102216.72;;;33.25;30.77
61537;BME280;48695;53.480;-6.300;2023-05-28T11:46:24;102210.56;;;33.33;29.79
61537;BME280;48695;53.480;-6.300;2023-05-28T11:48:49;102167.63;;;33.10;29.64
61537;BME280;48695;53.480;-6.300;2023-05-28T11:51:17;102208.44;;;33.36;29.89
61537;BME280;48695;53.480;-6.300;2023-05-28T11:53:43;102223.28;;;33.42;30.23
61537;BME280;48695;53.480;-6.300;2023-05-28T11:56:09;102210.22;;;33.55;30.55
61537;BME280;48695;53.480;-6.300;2023-05-28T11:58:35;102194.06;;;33.73;30.60
61537;BME280;48695;53.480;-6.300;2023-05-28T12:01:06;102208.81;;;33.88;29.54
61537;BME280;48695;53.480;-6.300;2023-05-28T12:03:31;102206.63;;;34.01;29.35
61537;BME280;48695;53.480;-6.300;2023-05-28T12:05:57;102191.28;;;34.10;28.62
61537;BME280;48695;53.480;-6.300;2023-05-28T12:08:22;102159.53;;;34.20;29.20
61537;BME280;48695;53.480;-6.300;2023-05-28T12:10:47;102206.31;;;34.68;29.04
61537;BME280;48695;53.480;-6.300;2023-05-28T12:13:13;102204.03;;;34.99;29.87
61537;BME280;48695;53.480;-6.300;2023-05-28T12:15:38;102206.28;;;35.29;28.98
61537;BME280;48695;53.480;-6.300;2023-05-28T12:18:04;102201.69;;;35.56;28.12
61537;BME280;48695;53.480;-6.300;2023-05-28T12:20:30;102195.66;;;35.78;28.01
61537;BME280;48695;53.480;-6.300;2023-05-28T12:23:14;102200.84;;;35.98;27.84
61537;BME280;48695;53.480;-6.300;2023-05-28T12:25:45;102193.59;;;36.15;27.76
61537;BME280;48695;53.480;-6.300;2023-05-28T12:28:11;102188.69;;;36.26;27.91
61537;BME280;48695;53.480;-6.300;2023-05-28T12:30:38;102195.13;;;36.33;27.04
61537;BME280;48695;53.480;-6.300;2023-05-28T12:33:03;102183.56;;;36.39;26.84
61537;BME280;48695;53.480;-6.300;2023-05-28T12:35:29;102194.84;;;36.53;27.64
61537;BME280;48695;53.480;-6.300;2023-05-28T12:37:54;102185.16;;;36.67;28.26
61537;BME280;48695;53.480;-6.300;2023-05-28T12:40:19;102187.00;;;36.74;27.19
61537;BME280;48695;53.480;-6.300;2023-05-28T12:42:45;102192.28;;;36.84;27.07
61537;BME280;48695;53.480;-6.300;2023-05-28T12:45:10;102194.03;;;37.01;26.82